createdAt,value
2022-09-28T00:01:23.202Z,93.07
2022-09-28T00:03:52.321Z,93.30
2022-09-28T00:06:22.678Z,93.04
2022-09-28T00:08:50.740Z,92.56
2022-09-28T00:11:19.124Z,92.37
2022-09-28T00:13:53.936Z,92.56
2022-09-28T00:16:26.107Z,92.47
2022-09-28T00:18:54.953Z,92.62
2022-09-28T00:21:24.475Z,92.81
2022-09-28T00:24:15.077Z,92.65
2022-09-28T00:26:56.846Z,92.14
2022-09-28T00:29:32.944Z,91.90
2022-09-28T00:32:06.601Z,91.72
2022-09-28T00:34:40.096Z,91.81
2022-09-28T00:37:10.785Z,91.83
2022-09-28T00:39:38.944Z,92.11
2022-09-28T00:42:16.538Z,91.80
2022-09-28T00:44:47.949Z,91.57
2022-09-28T00:47:31.794Z,91.60
2022-09-28T00:50:11.052Z,91.63
2022-09-28T00:52:49.683Z,91.47
2022-09-28T00:55:22.905Z,90.72
2022-09-28T00:57:52.692Z,91.02
2022-09-28T01:00:22.513Z,91.47
2022-09-28T01:02:50.503Z,91.24
2022-09-28T01:05:18.619Z,91.29
2022-09-28T01:07:47.563Z,91.49
2022-09-28T01:10:15.249Z,91.41
2022-09-28T01:12:45.734Z,91.45
2022-09-28T01:15:16.064Z,91.72
2022-09-28T01:17:53.305Z,91.73
2022-09-28T01:21:01.726Z,91.84
2022-09-28T01:23:56.064Z,92.04
2022-09-28T01:26:34.616Z,91.81
2022-09-28T01:29:26.976Z,91.81
2022-09-28T01:32:21.568Z,91.81
2022-09-28T01:35:32.024Z,92.26
2022-09-28T01:38:08.296Z,92.82
2022-09-28T01:40:36.466Z,92.94
2022-09-28T01:43:07.317Z,92.96
2022-09-28T01:45:52.362Z,93.04
2022-09-28T01:48:29.909Z,93.15
2022-09-28T01:51:00.371Z,93.17
2022-09-28T01:53:36.320Z,92.89
2022-09-28T01:56:15.463Z,92.70
2022-09-28T01:58:47.420Z,92.78
2022-09-28T02:01:24.184Z,92.21
2022-09-28T02:04:08.703Z,92.02
2022-09-28T02:06:39.163Z,92.08
2022-09-28T02:09:17.385Z,91.85
2022-09-28T02:11:52.912Z,91.84
2022-09-28T02:14:21.613Z,91.96
2022-09-28T02:16:52.679Z,91.74
2022-09-28T02:19:28.809Z,91.81
2022-09-28T02:22:10.507Z,91.98
2022-09-28T02:24:40.547Z,91.63
2022-09-28T02:27:16.798Z,91.38
2022-09-28T02:29:48.837Z,91.02
2022-09-28T02:32:24.504Z,91.34
2022-09-28T02:34:52.562Z,91.47
2022-09-28T02:37:22.566Z,91.14
2022-09-28T02:39:54.930Z,91.25
2022-09-28T02:42:29.650Z,91.17
2022-09-28T02:45:26.834Z,90.54
2022-09-28T02:48:14.135Z,90.49
2022-09-28T02:51:27.258Z,90.06
2022-09-28T02:54:23.424Z,90.52
2022-09-28T02:57:03.231Z,90.96
2022-09-28T02:59:46.353Z,90.93
2022-09-28T03:02:34.850Z,90.51
2022-09-28T03:05:10.225Z,90.54
2022-09-28T03:07:53.267Z,90.21
2022-09-28T03:10:31.470Z,89.46
2022-09-28T03:13:00.746Z,89.42
2022-09-28T03:15:38.237Z,89.15
2022-09-28T03:18:08.942Z,89.01
2022-09-28T03:20:38.090Z,89.72
2022-09-28T03:23:23.887Z,90.23
2022-09-28T03:25:55.159Z,89.67
2022-09-28T03:28:24.713Z,89.81
2022-09-28T03:30:54.178Z,89.80
2022-09-28T03:33:23.383Z,90.01
2022-09-28T03:35:53.278Z,90.79
2022-09-28T03:38:22.256Z,90.90
2022-09-28T03:40:57.434Z,90.29
2022-09-28T03:43:26.206Z,90.78
2022-09-28T03:45:59.465Z,90.79
2022-09-28T03:48:32.620Z,90.38
2022-09-28T03:51:02.229Z,90.58
2022-09-28T03:53:30.878Z,90.87
2022-09-28T03:56:08.051Z,90.33
2022-09-28T03:58:37.920Z,90.11
2022-09-28T04:01:09.227Z,90.10
2022-09-28T04:03:40.575Z,89.57
2022-09-28T04:06:08.875Z,89.95
2022-09-28T04:08:37.585Z,89.92
2022-09-28T04:11:06.974Z,89.64
2022-09-28T04:13:35.524Z,89.71
2022-09-28T04:16:05.739Z,89.82
2022-09-28T04:18:35.504Z,89.97
2022-09-28T04:21:16.068Z,89.45
2022-09-28T04:23:49.435Z,88.93
2022-09-28T04:26:22.646Z,88.70
2022-09-28T04:29:15.304Z,88.95
2022-09-28T04:31:53.658Z,89.19
2022-09-28T04:34:29.849Z,89.11
2022-09-28T04:37:05.252Z,89.33
2022-09-28T04:39:36.256Z,89.77
2022-09-28T04:42:08.615Z,90.23
2022-09-28T04:44:36.874Z,90.14
2022-09-28T04:47:10.053Z,89.67
2022-09-28T04:50:17.236Z,89.39
2022-09-28T04:53:09.303Z,88.43
2022-09-28T04:55:41.227Z,88.65
2022-09-28T04:58:10.248Z,89.19
2022-09-28T05:00:39.925Z,89.66
2022-09-28T05:03:24.193Z,89.71
2022-09-28T05:06:14.640Z,90.04
2022-09-28T05:08:47.504Z,90.40
2022-09-28T05:11:20.367Z,90.14
2022-09-28T05:13:51.603Z,89.94
2022-09-28T05:16:27.671Z,89.36
2022-09-28T05:19:18.814Z,89.36
2022-09-28T05:21:56.106Z,89.14
2022-09-28T05:24:26.796Z,89.07
2022-09-28T05:26:56.537Z,89.20
2022-09-28T05:29:32.077Z,89.37
2022-09-28T05:32:20.406Z,88.99
2022-09-28T05:35:02.522Z,88.35
2022-09-28T05:37:42.683Z,88.49
2022-09-28T05:40:12.965Z,88.68
2022-09-28T05:42:44.596Z,88.42
2022-09-28T05:45:16.732Z,89.42
2022-09-28T05:47:51.017Z,89.70
2022-09-28T05:50:22.716Z,89.16
2022-09-28T05:53:03.891Z,88.92
2022-09-28T05:55:41.094Z,88.20
2022-09-28T05:58:16.479Z,88.61
2022-09-28T06:00:47.977Z,88.03
2022-09-28T06:03:17.134Z,87.90
2022-09-28T06:05:49.845Z,88.13
2022-09-28T06:08:23.939Z,88.06
2022-09-28T06:11:02.522Z,88.48
2022-09-28T06:13:37.629Z,88.23
2022-09-28T06:16:17.114Z,87.62
2022-09-28T06:18:46.635Z,87.67
2022-09-28T06:21:37.135Z,87.76
2022-09-28T06:24:05.186Z,88.31
2022-09-28T06:26:33.386Z,87.47
2022-09-28T06:29:04.093Z,87.63
2022-09-28T06:31:32.091Z,87.65
2022-09-28T06:34:02.364Z,87.69
2022-09-28T06:36:31.693Z,87.76
2022-09-28T06:39:00.378Z,87.52
2022-09-28T06:41:29.768Z,87.60
2022-09-28T06:44:02.650Z,86.14
2022-09-28T06:46:48.885Z,83.78
2022-09-28T06:49:24.060Z,83.69
2022-09-28T06:52:25.689Z,84.82
2022-09-28T06:55:21.693Z,86.18
2022-09-28T06:58:15.163Z,85.74
2022-09-28T07:00:51.529Z,85.68
2022-09-28T07:03:24.347Z,85.92
2022-09-28T07:06:12.968Z,85.89
2022-09-28T07:09:26.349Z,83.81
2022-09-28T07:12:37.099Z,83.47
2022-09-28T07:15:22.813Z,82.43
2022-09-28T07:18:02.638Z,81.78
2022-09-28T07:20:47.823Z,83.02
2022-09-28T07:23:28.135Z,81.59
2022-09-28T07:26:28.592Z,76.83
2022-09-28T07:29:16.530Z,77.83
2022-09-28T07:31:59.035Z,72.65
2022-09-28T07:34:32.042Z,72.34
2022-09-28T07:37:13.270Z,65.96
2022-09-28T07:40:03.666Z,73.31
2022-09-28T07:42:44.873Z,77.73
2022-09-28T07:45:26.252Z,77.61
2022-09-28T07:48:00.950Z,72.38
2022-09-28T07:50:54.434Z,65.33
2022-09-28T07:53:37.547Z,64.70
2022-09-28T07:56:23.584Z,63.74
2022-09-28T07:59:12.942Z,65.37
2022-09-28T08:01:46.356Z,67.04
2022-09-28T08:04:17.164Z,68.27
2022-09-28T08:06:50.968Z,66.80
2022-09-28T08:09:22.972Z,65.91
2022-09-28T08:12:12.616Z,65.79
2022-09-28T08:15:01.084Z,67.19
2022-09-28T08:17:49.918Z,69.77
2022-09-28T08:20:48.039Z,75.51
2022-09-28T08:23:19.827Z,76.47
2022-09-28T08:25:56.718Z,76.00
2022-09-28T08:28:26.033Z,76.28
2022-09-28T08:31:01.818Z,76.36
2022-09-28T08:33:33.087Z,75.17
2022-09-28T08:36:19.199Z,76.13
2022-09-28T08:39:03.513Z,76.55
2022-09-28T08:42:12.398Z,75.61
2022-09-28T08:45:02.392Z,75.43
2022-09-28T08:48:56.239Z,74.58
2022-09-28T08:51:50.764Z,75.54
2022-09-28T08:54:54.364Z,75.91
2022-09-28T08:57:42.134Z,76.26
2022-09-28T09:00:29.149Z,76.98
2022-09-28T09:03:18.262Z,77.03
2022-09-28T09:06:40.621Z,75.57
2022-09-28T09:09:47.215Z,73.29
2022-09-28T09:15:49.284Z,74.09
2022-09-28T09:18:39.120Z,74.85
2022-09-28T09:21:51.035Z,73.71
2022-09-28T09:24:47.981Z,72.23
2022-09-28T09:27:28.938Z,71.83
2022-09-28T09:30:02.094Z,70.57
2022-09-28T09:32:54.337Z,71.43
2022-09-28T09:36:03.933Z,71.51
2022-09-28T09:39:07.801Z,72.18
2022-09-28T09:42:20.631Z,73.07
2022-09-28T09:46:00.903Z,73.54
2022-09-28T09:49:18.335Z,74.11
2022-09-28T09:51:50.339Z,74.72
2022-09-28T09:59:38.102Z,74.65
2022-09-28T10:02:59.090Z,74.93
2022-09-28T10:05:47.583Z,75.22
2022-09-28T10:08:21.238Z,74.91
2022-09-28T10:11:24.353Z,75.25
2022-09-28T10:14:02.748Z,75.14
2022-09-28T10:16:41.616Z,74.27
2022-09-28T10:19:22.873Z,73.99
2022-09-28T10:22:20.000Z,73.53
2022-09-28T10:24:58.685Z,73.91
2022-09-28T10:27:47.589Z,74.65
2022-09-28T10:30:26.415Z,74.88
2022-09-28T10:33:00.007Z,74.56
2022-09-28T10:35:48.975Z,73.82
2022-09-28T10:38:22.896Z,74.20
2022-09-28T10:41:28.585Z,74.44
2022-09-28T10:44:09.728Z,74.83
2022-09-28T10:47:20.642Z,73.74
2022-09-28T10:54:33.292Z,72.87
2022-09-28T10:57:30.334Z,70.74
2022-09-28T11:00:14.460Z,70.83
2022-09-28T11:02:57.554Z,70.64
2022-09-28T11:05:38.358Z,70.90
2022-09-28T11:08:07.708Z,70.86
2022-09-28T11:10:49.496Z,70.65
2022-09-28T11:13:24.527Z,70.96
2022-09-28T11:16:03.743Z,69.42
2022-09-28T11:18:44.619Z,69.67
2022-09-28T11:21:25.259Z,70.28
2022-09-28T11:24:06.041Z,70.47
2022-09-28T11:26:48.223Z,70.98
2022-09-28T11:29:32.182Z,70.75
2022-09-28T11:32:24.324Z,71.22
2022-09-28T11:35:21.200Z,71.38
2022-09-28T11:38:31.333Z,71.71
2022-09-28T11:42:16.386Z,71.68
2022-09-28T11:44:49.251Z,71.77
2022-09-28T11:47:30.730Z,70.99
2022-09-28T11:50:22.903Z,70.94
2022-09-28T11:53:07.282Z,71.17
2022-09-28T11:55:47.756Z,71.40
2022-09-28T11:58:39.734Z,71.81
2022-09-28T12:01:44.859Z,71.00
2022-09-28T12:04:32.885Z,70.23
2022-09-28T12:07:20.376Z,70.48
2022-09-28T12:09:53.627Z,68.76
2022-09-28T12:12:32.818Z,69.67
2022-09-28T12:15:13.497Z,70.07
2022-09-28T12:17:48.610Z,70.12
2022-09-28T12:20:21.947Z,69.38
2022-09-28T12:23:01.162Z,69.86
2022-09-28T12:25:48.197Z,69.30
2022-09-28T12:28:39.324Z,69.17
2022-09-28T12:31:17.069Z,69.38
2022-09-28T12:33:47.627Z,69.47
2022-09-28T12:36:21.089Z,68.42
2022-09-28T12:39:21.649Z,68.03
2022-09-28T12:41:56.259Z,68.36
2022-09-28T12:44:26.941Z,68.28
2022-09-28T12:47:09.915Z,68.91
2022-09-28T12:53:05.822Z,69.32
2022-09-28T12:55:40.287Z,68.48
2022-09-28T12:58:27.561Z,69.28
2022-09-28T13:01:14.261Z,69.90
2022-09-28T13:03:57.039Z,70.08
2022-09-28T13:06:44.447Z,70.17
2022-09-28T13:09:27.765Z,71.02
2022-09-28T13:11:59.023Z,71.23
2022-09-28T13:14:45.940Z,71.21
2022-09-28T13:17:20.103Z,70.98
2022-09-28T13:19:53.310Z,71.46
2022-09-28T13:22:33.467Z,71.81
2022-09-28T13:25:04.129Z,71.98
2022-09-28T13:27:35.099Z,72.01
2022-09-28T13:30:08.435Z,71.45
2022-09-28T13:32:38.391Z,71.34
2022-09-28T13:35:07.060Z,71.33
2022-09-28T13:37:35.100Z,70.69
2022-09-28T13:40:06.413Z,69.13
2022-09-28T13:42:46.575Z,69.56
2022-09-28T13:45:17.700Z,69.31
2022-09-28T13:47:48.795Z,69.59
2022-09-28T13:50:41.358Z,70.16
2022-09-28T13:53:12.872Z,69.62
2022-09-28T13:55:54.551Z,69.56
2022-09-28T13:58:49.203Z,70.56
2022-09-28T14:01:19.957Z,70.56
2022-09-28T14:03:57.669Z,70.94
2022-09-28T14:06:30.723Z,71.61
2022-09-28T14:09:13.831Z,72.14
2022-09-28T14:11:43.090Z,71.99
2022-09-28T14:14:15.224Z,72.32
2022-09-28T14:16:46.323Z,72.40
2022-09-28T14:19:27.481Z,73.11
2022-09-28T14:22:01.322Z,73.28
2022-09-28T14:25:10.839Z,72.96
2022-09-28T14:28:17.059Z,72.49
2022-09-28T14:30:50.329Z,73.29
2022-09-28T14:33:21.401Z,72.68
2022-09-28T14:35:56.657Z,73.09
2022-09-28T14:38:45.315Z,72.59
2022-09-28T14:41:18.284Z,73.02
2022-09-28T14:43:48.397Z,73.46
2022-09-28T14:46:17.458Z,73.59
2022-09-28T14:48:53.185Z,73.77
2022-09-28T14:51:26.786Z,73.85
2022-09-28T14:53:55.249Z,74.37
2022-09-28T14:56:23.014Z,74.00
2022-09-28T14:58:54.763Z,74.58
2022-09-28T15:01:25.072Z,74.91
2022-09-28T15:03:54.986Z,74.86
2022-09-28T15:06:23.974Z,74.98
2022-09-28T15:08:52.102Z,75.52
2022-09-28T15:11:24.876Z,75.61
2022-09-28T15:14:06.873Z,75.66
2022-09-28T15:16:36.108Z,76.05
2022-09-28T15:19:11.423Z,75.86
2022-09-28T15:21:40.577Z,76.35
2022-09-28T15:24:31.161Z,76.73
2022-09-28T15:27:05.420Z,76.78
2022-09-28T15:29:33.693Z,77.12
2022-09-28T15:32:01.483Z,77.16
2022-09-28T15:34:52.627Z,77.15
2022-09-28T15:37:29.812Z,77.05
2022-09-28T15:39:57.639Z,77.53
2022-09-28T15:42:25.768Z,77.71
2022-09-28T15:45:26.962Z,77.83
2022-09-28T15:48:18.892Z,77.91
2022-09-28T15:51:04.113Z,77.86
2022-09-28T15:53:32.014Z,77.89
2022-09-28T15:56:01.922Z,78.45
2022-09-28T15:58:29.833Z,78.46
2022-09-28T16:01:22.436Z,78.53
2022-09-28T16:03:50.270Z,78.61
2022-09-28T16:06:17.938Z,78.74
2022-09-28T16:08:47.208Z,78.83
2022-09-28T16:11:20.783Z,79.36
2022-09-28T16:14:06.299Z,79.37
2022-09-28T16:16:43.311Z,79.43
2022-09-28T16:19:21.111Z,79.57
2022-09-28T16:21:48.889Z,79.04
2022-09-28T16:24:28.529Z,79.31
2022-09-28T16:27:09.022Z,79.50
2022-09-28T16:29:41.085Z,79.82
2022-09-28T16:32:27.152Z,79.82
2022-09-28T16:35:12.855Z,79.54
2022-09-28T16:37:43.183Z,79.96
2022-09-28T16:40:11.656Z,79.94
2022-09-28T16:42:40.115Z,80.07
2022-09-28T16:45:08.486Z,79.67
2022-09-28T16:47:36.760Z,79.74
2022-09-28T16:50:07.162Z,80.21
2022-09-28T16:52:56.805Z,80.17
2022-09-28T16:55:43.131Z,80.13
2022-09-28T16:58:12.004Z,80.51
2022-09-28T17:00:39.513Z,80.94
2022-09-28T17:03:15.525Z,81.09
2022-09-28T17:05:46.166Z,81.24
2022-09-28T17:08:18.122Z,81.48
2022-09-28T17:11:14.032Z,81.55
2022-09-28T17:13:43.586Z,81.58
2022-09-28T17:16:15.984Z,81.82
2022-09-28T17:18:44.472Z,81.80
2022-09-28T17:21:13.617Z,81.96
2022-09-28T17:23:41.339Z,82.34
2022-09-28T17:26:08.996Z,82.66
2022-09-28T17:28:37.037Z,82.52
2022-09-28T17:31:07.329Z,82.69
2022-09-28T17:33:35.586Z,82.78
2022-09-28T17:36:05.217Z,83.29
2022-09-28T17:38:34.508Z,83.26
2022-09-28T17:41:02.298Z,82.98
2022-09-28T17:43:30.081Z,83.14
2022-09-28T17:45:57.606Z,83.16
2022-09-28T17:48:26.111Z,83.42
2022-09-28T17:50:53.649Z,83.55
2022-09-28T17:53:21.575Z,83.34
2022-09-28T17:55:49.367Z,83.39
2022-09-28T17:58:21.677Z,83.67
2022-09-28T18:00:53.855Z,83.56
2022-09-28T18:03:23.080Z,83.45
2022-09-28T18:06:03.344Z,83.50
2022-09-28T18:08:31.293Z,83.41
2022-09-28T18:10:59.729Z,83.41
2022-09-28T18:13:29.470Z,82.92
2022-09-28T18:15:57.240Z,83.03
2022-09-28T18:18:25.097Z,82.51
2022-09-28T18:20:53.824Z,83.21
2022-09-28T18:23:23.931Z,83.25
2022-09-28T18:25:51.882Z,83.29
2022-09-28T18:28:23.631Z,83.59
2022-09-28T18:30:53.514Z,83.71
2022-09-28T18:33:21.636Z,83.97
2022-09-28T18:35:57.792Z,83.73
2022-09-28T18:38:26.637Z,83.97
2022-09-28T18:40:56.386Z,84.04
2022-09-28T18:43:24.158Z,84.51
2022-09-28T18:45:51.855Z,84.01
2022-09-28T18:48:23.684Z,84.62
2022-09-28T18:50:52.496Z,85.06
2022-09-28T18:53:20.166Z,84.47
2022-09-28T18:55:50.980Z,84.65
2022-09-28T18:58:19.645Z,84.13
2022-09-28T19:00:48.886Z,84.21
2022-09-28T19:03:17.976Z,84.76
2022-09-28T19:05:46.469Z,84.47
2022-09-28T19:08:14.393Z,84.75
2022-09-28T19:10:42.913Z,84.58
2022-09-28T19:13:10.581Z,84.47
2022-09-28T19:15:38.091Z,84.26
2022-09-28T19:18:08.171Z,85.09
2022-09-28T19:20:35.888Z,85.67
2022-09-28T19:23:06.525Z,86.10
2022-09-28T19:25:35.299Z,86.25
2022-09-28T19:28:03.008Z,86.53
2022-09-28T19:30:31.406Z,86.74
2022-09-28T19:33:00.378Z,86.79
2022-09-28T19:35:29.916Z,85.90
2022-09-28T19:37:57.943Z,86.45
2022-09-28T19:40:25.797Z,87.30
2022-09-28T19:42:53.546Z,87.29
2022-09-28T19:45:21.329Z,86.73
2022-09-28T19:47:49.539Z,87.18
2022-09-28T19:50:17.762Z,87.47
2022-09-28T19:52:45.869Z,87.53
2022-09-28T19:55:14.385Z,88.09
2022-09-28T19:57:42.906Z,88.20
2022-09-28T20:00:12.466Z,88.07
2022-09-28T20:02:40.268Z,88.44
2022-09-28T20:05:08.419Z,87.93
2022-09-28T20:07:37.160Z,87.50
2022-09-28T20:10:07.778Z,86.97
2022-09-28T20:12:35.362Z,87.78
2022-09-28T20:15:03.010Z,87.80
2022-09-28T20:17:30.696Z,87.95
2022-09-28T20:19:58.915Z,87.89
2022-09-28T20:22:26.727Z,88.15
2022-09-28T20:24:54.493Z,88.01
2022-09-28T20:27:25.605Z,87.40
2022-09-28T20:29:54.129Z,87.77
2022-09-28T20:32:21.683Z,87.85
2022-09-28T20:34:50.276Z,87.73
2022-09-28T20:37:17.882Z,87.42
2022-09-28T20:39:45.608Z,87.60
2022-09-28T20:42:16.414Z,87.57
2022-09-28T20:44:44.266Z,87.06
2022-09-28T20:47:12.166Z,86.86
2022-09-28T20:49:39.875Z,86.02
2022-09-28T20:52:08.172Z,86.54
2022-09-28T20:54:35.742Z,87.00
2022-09-28T20:57:17.616Z,87.47
2022-09-28T20:59:45.586Z,87.42
2022-09-28T21:02:14.163Z,88.03
2022-09-28T21:04:42.598Z,88.01
2022-09-28T21:07:10.214Z,87.56
2022-09-28T21:09:38.261Z,87.15
2022-09-28T21:12:05.951Z,87.44
2022-09-28T21:14:34.556Z,87.10
2022-09-28T21:17:02.156Z,87.17
2022-09-28T21:19:30.331Z,86.43
2022-09-28T21:21:58.062Z,86.46
2022-09-28T21:24:26.641Z,86.54
2022-09-28T21:26:55.875Z,87.09
2022-09-28T21:29:23.552Z,87.37
2022-09-28T21:31:51.101Z,87.34
2022-09-28T21:34:19.625Z,87.52
2022-09-28T21:36:51.558Z,87.96
2022-09-28T21:39:19.291Z,87.60
2022-09-28T21:41:46.733Z,87.49
2022-09-28T21:44:14.468Z,87.17
2022-09-28T21:46:42.438Z,86.89
2022-09-28T21:49:10.435Z,87.01
2022-09-28T21:51:38.238Z,86.41
2022-09-28T21:54:07.705Z,86.30
2022-09-28T21:56:35.432Z,87.23
2022-09-28T21:59:03.140Z,87.39
2022-09-28T22:01:32.962Z,86.97
2022-09-28T22:04:02.409Z,87.69
2022-09-28T22:06:30.142Z,88.16
2022-09-28T22:08:57.876Z,88.36
2022-09-28T22:11:27.033Z,87.85
2022-09-28T22:13:56.429Z,87.63
2022-09-28T22:16:25.548Z,87.84
2022-09-28T22:18:53.212Z,87.22
2022-09-28T22:21:25.234Z,87.13
2022-09-28T22:23:53.923Z,86.98
2022-09-28T22:26:24.309Z,87.28
2022-09-28T22:28:53.425Z,87.43
2022-09-28T22:31:29.398Z,87.59
2022-09-28T22:33:57.305Z,87.18
2022-09-28T22:36:26.361Z,86.65
2022-09-28T22:38:55.875Z,86.61
2022-09-28T22:41:25.541Z,86.93
2022-09-28T22:43:53.538Z,86.88
2022-09-28T22:46:23.173Z,86.65
2022-09-28T22:48:53.144Z,86.78
2022-09-28T22:51:23.166Z,87.03
2022-09-28T22:53:51.087Z,86.86
2022-09-28T22:56:19.350Z,87.06
2022-09-28T22:58:47.524Z,87.31
2022-09-28T23:01:21.269Z,85.88
2022-09-28T23:03:49.604Z,86.80
2022-09-28T23:06:18.061Z,84.84
2022-09-28T23:08:46.080Z,83.67
2022-09-28T23:11:13.715Z,83.39
2022-09-28T23:13:41.490Z,83.48
2022-09-28T23:16:11.201Z,83.36
2022-09-28T23:18:41.174Z,83.28
2022-09-28T23:21:12.213Z,83.23
2022-09-28T23:23:40.237Z,83.22
2022-09-28T23:26:19.343Z,83.69
2022-09-28T23:28:47.075Z,83.41
2022-09-28T23:31:16.652Z,83.38
2022-09-28T23:33:44.466Z,84.36
2022-09-28T23:36:12.168Z,83.88
2022-09-28T23:38:39.677Z,85.71
2022-09-28T23:41:07.375Z,85.56
2022-09-28T23:43:35.108Z,85.10
2022-09-28T23:46:03.741Z,85.26
2022-09-28T23:48:31.422Z,85.76
2022-09-28T23:50:59.246Z,86.98
2022-09-28T23:53:26.953Z,87.46
2022-09-28T23:55:55.341Z,87.91
2022-09-28T23:58:22.898Z,87.74
